Time;durP1;ratioP1;P1;durP2;ratioP2;P2;SDS_P1;SDS_P2;PMS_P1;PMS_P2;Temp;Humidity;BMP_temperature;BMP_pressure;BME280_temperature;BME280_humidity;BME280_pressure;Samples;Min_cycle;Max_cycle;Signal;HPM_P1;HPM_P2
2022/07/05 00:00:47;;;;;;;8.18;2.13;;;18.10;99.90;;;;;;4994766;28;20618;-87
2022/07/05 00:03:13;;;;;;;6.20;1.80;;;18.10;99.90;;;;;;5009739;28;20213;-87
2022/07/05 00:05:39;;;;;;;2.63;1.77;;;17.80;99.90;;;;;;5009835;28;20172;-85
2022/07/05 00:08:06;;;;;;;4.45;1.95;;;17.80;99.90;;;;;;5009985;28;20275;-83
2022/07/05 00:10:33;;;;;;;7.35;1.90;;;17.60;99.90;;;;;;4994646;28;20162;-86
2022/07/05 00:12:59;;;;;;;3.50;2.00;;;17.70;99.90;;;;;;5009991;28;20208;-85
2022/07/05 00:15:25;;;;;;;8.15;1.90;;;17.60;99.90;;;;;;4993647;28;20216;-88
2022/07/05 00:17:50;;;;;;;4.05;1.77;;;17.60;99.90;;;;;;5009745;28;20625;-86
2022/07/05 00:20:16;;;;;;;2.85;2.13;;;17.40;99.90;;;;;;4993267;28;20189;-85
2022/07/05 00:22:42;;;;;;;4.60;2.33;;;17.30;99.90;;;;;;4994185;28;20245;-84
2022/07/05 00:25:08;;;;;;;2.65;1.70;;;17.20;99.90;;;;;;5009286;28;20771;-85
2022/07/05 00:27:34;;;;;;;2.22;1.90;;;17.00;99.90;;;;;;5009535;28;20169;-85
2022/07/05 00:30:00;;;;;;;3.00;2.47;;;17.10;99.90;;;;;;5009306;28;20232;-88
2022/07/05 00:32:25;;;;;;;2.88;1.70;;;17.20;99.90;;;;;;4994338;28;20507;-84
2022/07/05 00:34:51;;;;;;;4.00;1.92;;;17.10;99.90;;;;;;4994489;28;20641;-86
2022/07/05 00:37:17;;;;;;;4.47;1.80;;;17.10;99.90;;;;;;5009489;28;20668;-86
2022/07/05 00:39:43;;;;;;;3.63;1.50;;;17.00;99.90;;;;;;5009409;28;20192;-87
2022/07/05 00:42:09;;;;;;;2.00;1.48;;;17.10;99.90;;;;;;5009064;28;20211;-84
2022/07/05 00:44:37;;;;;;;3.67;1.85;;;17.00;99.90;;;;;;4993980;28;20185;-84
2022/07/05 00:47:07;;;;;;;3.40;1.73;;;17.10;99.90;;;;;;5009426;28;20166;-84
2022/07/05 00:49:34;;;;;;;2.28;2.03;;;17.20;99.90;;;;;;4994112;28;20657;-84
2022/07/05 00:52:01;;;;;;;5.90;1.90;;;17.20;99.90;;;;;;5009489;28;20544;-84
2022/07/05 00:54:27;;;;;;;5.13;2.28;;;17.10;99.90;;;;;;4994018;28;20182;-86
2022/07/05 00:56:53;;;;;;;2.92;1.77;;;16.90;99.90;;;;;;5009247;28;20256;-85
2022/07/05 00:59:18;;;;;;;4.57;1.92;;;16.90;99.90;;;;;;5008926;28;20243;-83
2022/07/05 01:01:44;;;;;;;2.03;1.80;;;17.00;99.90;;;;;;5009149;28;20553;-86
2022/07/05 01:04:12;;;;;;;2.55;1.88;;;17.00;99.90;;;;;;5009197;28;20177;-84
2022/07/05 01:06:39;;;;;;;2.90;1.88;;;17.00;99.90;;;;;;5009241;28;20200;-86
2022/07/05 01:09:05;;;;;;;4.47;1.83;;;17.00;99.90;;;;;;5009175;28;20206;-85
2022/07/05 01:11:31;;;;;;;2.38;2.17;;;17.10;99.90;;;;;;5009129;28;20246;-88
2022/07/05 01:14:00;;;;;;;4.20;2.47;;;17.00;99.90;;;;;;5008545;28;20185;-88
2022/07/05 01:16:26;;;;;;;5.68;2.22;;;16.80;99.90;;;;;;4993813;28;20165;-85
2022/07/05 01:18:52;;;;;;;8.65;2.20;;;16.70;99.90;;;;;;5008652;28;20185;-83
2022/07/05 01:21:21;;;;;;;2.05;1.83;;;16.60;99.90;;;;;;5008881;28;20291;-84
2022/07/05 01:23:49;;;;;;;2.30;1.90;;;16.60;99.90;;;;;;5008663;28;20296;-87
2022/07/05 01:26:15;;;;;;;2.80;1.98;;;16.60;99.90;;;;;;5008430;28;20272;-86
2022/07/05 01:28:41;;;;;;;2.55;2.13;;;16.60;99.90;;;;;;5008449;28;20197;-84
2022/07/05 01:31:07;;;;;;;3.15;2.38;;;16.70;99.90;;;;;;4993820;28;20248;-85
2022/07/05 01:33:32;;;;;;;3.00;2.10;;;16.50;99.90;;;;;;5009003;28;20211;-84
2022/07/05 01:35:58;;;;;;;1.88;1.77;;;16.60;99.90;;;;;;5008804;28;20180;-86
2022/07/05 01:38:27;;;;;;;12.82;2.47;;;16.40;99.90;;;;;;4993572;28;20228;-87
2022/07/05 01:40:52;;;;;;;5.85;2.20;;;16.40;99.90;;;;;;5008782;28;20223;-84
2022/07/05 01:43:19;;;;;;;6.50;2.40;;;16.30;99.90;;;;;;4993423;28;20558;-85
2022/07/05 01:45:47;;;;;;;5.00;2.17;;;16.40;99.90;;;;;;5008287;28;20197;-85
2022/07/05 01:48:15;;;;;;;7.03;1.98;;;16.60;99.90;;;;;;5008341;28;20177;-87
2022/07/05 01:50:48;;;;;;;5.93;2.28;;;16.40;99.90;;;;;;5008508;28;20634;-84
2022/07/05 01:53:27;;;;;;;9.00;2.17;;;16.40;99.90;;;;;;4992959;28;20189;-86
2022/07/05 01:55:55;;;;;;;2.13;2.00;;;16.30;99.90;;;;;;4993316;28;20169;-85
2022/07/05 01:58:21;;;;;;;8.07;2.72;;;16.20;99.90;;;;;;5008730;28;20228;-84
2022/07/05 02:00:49;;;;;;;2.83;2.28;;;16.20;99.90;;;;;;4993184;28;20170;-84
2022/07/05 02:03:15;;;;;;;3.55;1.90;;;16.30;99.90;;;;;;5008809;28;20246;-84
2022/07/05 02:05:42;;;;;;;5.10;2.17;;;16.10;99.90;;;;;;5008621;28;20181;-87
2022/07/05 02:08:08;;;;;;;2.08;1.98;;;16.00;99.90;;;;;;5008762;28;20343;-86
2022/07/05 02:10:35;;;;;;;12.70;2.50;;;15.80;99.90;;;;;;4992381;28;20674;-85
2022/07/05 02:13:02;;;;;;;2.95;1.80;;;15.90;99.90;;;;;;5008373;28;20650;-84
2022/07/05 02:15:30;;;;;;;2.25;1.95;;;16.00;99.90;;;;;;5008157;28;20173;-84
2022/07/05 02:17:56;;;;;;;5.53;2.65;;;16.00;99.90;;;;;;5008475;28;20180;-84
2022/07/05 02:20:21;;;;;;;5.72;2.17;;;16.10;99.90;;;;;;4993212;28;20185;-87
2022/07/05 02:22:47;;;;;;;2.63;2.15;;;16.00;99.90;;;;;;5007823;28;20737;-86
2022/07/05 02:25:12;;;;;;;4.03;2.38;;;16.10;99.90;;;;;;5008381;28;20269;-85
2022/07/05 02:27:39;;;;;;;8.98;2.60;;;16.00;99.90;;;;;;5011833;28;20229;-85
2022/07/05 02:30:05;;;;;;;7.57;2.67;;;16.10;99.90;;;;;;5011810;28;20279;-86
2022/07/05 02:32:32;;;;;;;6.68;2.55;;;16.10;99.90;;;;;;4996579;28;20293;-84
2022/07/05 02:34:58;;;;;;;2.65;2.40;;;15.90;99.90;;;;;;4996987;28;20577;-86
2022/07/05 02:37:24;;;;;;;2.78;2.42;;;16.00;99.90;;;;;;5011703;28;20212;-83
2022/07/05 02:39:49;;;;;;;4.03;2.05;;;16.30;99.90;;;;;;5011896;28;20291;-83
2022/07/05 02:42:15;;;;;;;5.13;2.40;;;16.30;99.90;;;;;;4996186;28;20200;-87
2022/07/05 02:44:40;;;;;;;5.95;2.58;;;16.30;99.90;;;;;;4996542;28;20177;-87
2022/07/05 02:47:06;;;;;;;2.75;2.40;;;16.20;99.90;;;;;;5011649;28;20605;-85
2022/07/05 02:49:31;;;;;;;2.50;2.30;;;16.20;99.90;;;;;;4996471;28;20192;-86
2022/07/05 02:51:57;;;;;;;10.65;2.05;;;16.00;99.90;;;;;;5011715;28;20169;-84
2022/07/05 02:54:23;;;;;;;2.83;2.33;;;15.90;99.90;;;;;;5011015;28;20177;-87
2022/07/05 02:56:49;;;;;;;2.53;2.15;;;16.00;99.90;;;;;;5011312;28;20176;-85
2022/07/05 02:59:14;;;;;;;5.85;2.65;;;15.90;99.90;;;;;;5011124;28;20185;-83
2022/07/05 03:01:40;;;;;;;4.95;2.33;;;15.90;99.90;;;;;;4996421;28;20226;-84
2022/07/05 03:04:06;;;;;;;11.30;3.08;;;15.90;99.90;;;;;;5011659;28;20220;-85
2022/07/05 03:06:32;;;;;;;4.97;3.13;;;15.90;99.90;;;;;;4994867;28;20180;-85
2022/07/05 03:08:58;;;;;;;8.20;3.03;;;15.70;99.90;;;;;;5010859;28;20196;-86
2022/07/05 03:11:23;;;;;;;9.07;2.95;;;15.90;99.90;;;;;;4995996;28;20685;-85
2022/07/05 03:13:49;;;;;;;10.48;4.03;;;15.70;99.90;;;;;;5011089;28;20291;-84
2022/07/05 03:16:15;;;;;;;5.53;2.45;;;15.60;99.90;;;;;;4995873;28;20180;-84
2022/07/05 03:18:40;;;;;;;3.70;2.72;;;15.40;99.90;;;;;;5011140;28;20553;-85
2022/07/05 03:21:06;;;;;;;3.42;2.80;;;15.40;99.90;;;;;;4996374;28;20173;-85
2022/07/05 03:23:31;;;;;;;9.55;3.15;;;15.40;99.90;;;;;;4995721;28;20688;-85
2022/07/05 03:25:57;;;;;;;3.50;2.88;;;15.40;99.90;;;;;;4995880;28;20173;-86
2022/07/05 03:28:23;;;;;;;4.28;2.95;;;15.60;99.90;;;;;;4995530;28;20636;-83
2022/07/05 03:30:48;;;;;;;4.65;3.20;;;15.80;99.90;;;;;;4995920;28;20166;-87
2022/07/05 03:33:14;;;;;;;7.30;2.58;;;15.70;99.90;;;;;;5010638;28;20173;-83
2022/07/05 03:35:39;;;;;;;9.50;2.60;;;15.50;99.90;;;;;;5011152;28;20209;-84
2022/07/05 03:38:05;;;;;;;7.53;2.97;;;15.60;99.90;;;;;;5009831;28;20176;-87
2022/07/05 03:40:31;;;;;;;3.00;2.80;;;15.70;99.90;;;;;;4995598;28;20173;-86
2022/07/05 03:42:56;;;;;;;4.70;2.90;;;15.70;99.90;;;;;;5010496;28;20239;-84
2022/07/05 03:45:22;;;;;;;6.45;3.08;;;15.60;99.90;;;;;;5010563;28;20627;-82
2022/07/05 03:47:47;;;;;;;5.25;3.08;;;15.60;99.90;;;;;;4995491;28;20220;-85
2022/07/05 03:50:13;;;;;;;3.20;2.70;;;15.60;99.90;;;;;;5010711;28;20197;-84
2022/07/05 03:52:39;;;;;;;6.03;2.95;;;15.70;99.90;;;;;;4995497;28;20176;-84
2022/07/05 03:55:05;;;;;;;4.32;2.63;;;15.50;99.90;;;;;;5010524;28;20192;-85
2022/07/05 03:57:30;;;;;;;12.50;2.90;;;15.70;99.90;;;;;;5010762;28;20180;-84
2022/07/05 03:59:56;;;;;;;5.97;2.63;;;15.80;99.90;;;;;;5011237;28;20203;-85
2022/07/05 04:02:22;;;;;;;3.15;2.50;;;15.80;99.90;;;;;;5011750;28;20235;-83
2022/07/05 04:04:47;;;;;;;6.30;3.30;;;15.70;99.90;;;;;;4997311;28;20176;-83
2022/07/05 04:07:13;;;;;;;12.48;3.10;;;15.80;99.90;;;;;;5011067;28;20681;-83
2022/07/05 04:09:39;;;;;;;4.63;3.00;;;16.10;99.90;;;;;;4997061;28;20224;-83
2022/07/05 04:12:05;;;;;;;12.65;2.85;;;16.50;99.90;;;;;;5011772;28;20208;-84
2022/07/05 04:14:31;;;;;;;2.90;2.42;;;16.80;99.90;;;;;;5012528;28;20189;-84
2022/07/05 04:16:56;;;;;;;14.40;3.03;;;17.10;99.90;;;;;;5012840;28;20184;-84
2022/07/05 04:19:22;;;;;;;3.17;2.78;;;17.40;99.90;;;;;;5005018;28;20189;-83
2022/07/05 04:21:48;;;;;;;5.18;2.55;;;17.70;99.90;;;;;;5003850;28;20169;-84
2022/07/05 04:24:13;;;;;;;7.57;2.90;;;18.00;99.90;;;;;;5002500;28;20584;-84
2022/07/05 04:26:39;;;;;;;7.40;3.10;;;18.20;99.90;;;;;;5017699;28;20200;-84
2022/07/05 04:29:05;;;;;;;9.80;3.45;;;18.30;99.90;;;;;;5001782;28;20207;-85
2022/07/05 04:31:31;;;;;;;10.45;3.13;;;18.20;99.90;;;;;;5016471;28;20231;-86
2022/07/05 04:33:56;;;;;;;7.38;3.22;;;17.80;99.90;;;;;;5018814;28;20204;-85
2022/07/05 04:36:22;;;;;;;5.00;2.72;;;17.80;99.90;;;;;;4997602;28;20157;-88
2022/07/05 04:38:47;;;;;;;9.18;3.85;;;18.00;99.90;;;;;;5009710;28;20676;-82
2022/07/05 04:41:13;;;;;;;6.72;3.15;;;18.10;99.90;;;;;;4994349;28;20165;-85
2022/07/05 04:43:38;;;;;;;5.57;3.42;;;18.00;99.90;;;;;;4994346;28;20205;-84
2022/07/05 04:46:04;;;;;;;7.55;3.28;;;17.90;99.90;;;;;;4994554;28;20860;-88
2022/07/05 04:48:30;;;;;;;6.10;3.53;;;17.70;99.90;;;;;;4994721;28;20203;-83
2022/07/05 04:50:56;;;;;;;12.50;3.30;;;17.50;99.90;;;;;;5009178;28;20169;-87
2022/07/05 04:53:21;;;;;;;3.78;2.92;;;17.40;99.90;;;;;;5009436;28;20239;-87
2022/07/05 04:55:47;;;;;;;6.97;2.65;;;17.40;99.90;;;;;;5010011;28;20171;-83
2022/07/05 04:58:12;;;;;;;12.05;3.97;;;17.50;99.90;;;;;;5009645;28;20205;-83
2022/07/05 05:00:38;;;;;;;6.45;3.28;;;17.70;99.90;;;;;;4994502;28;20165;-83
2022/07/05 05:03:04;;;;;;;5.55;2.80;;;17.60;99.90;;;;;;5009204;28;20224;-83
2022/07/05 05:05:29;;;;;;;7.82;3.47;;;17.90;99.90;;;;;;4994228;28;20208;-85
2022/07/05 05:07:55;;;;;;;13.55;3.20;;;18.00;99.90;;;;;;5009050;28;20180;-84
2022/07/05 05:10:20;;;;;;;4.72;3.00;;;18.20;99.90;;;;;;4994112;28;20200;-86
2022/07/05 05:12:46;;;;;;;10.45;3.17;;;18.30;99.90;;;;;;5009243;28;20633;-84
2022/07/05 05:15:12;;;;;;;4.18;2.85;;;18.20;99.90;;;;;;5009278;28;20189;-83
2022/07/05 05:17:39;;;;;;;5.65;2.83;;;18.20;99.90;;;;;;5009339;28;20517;-84
2022/07/05 05:20:16;;;;;;;3.90;2.67;;;17.80;99.90;;;;;;5008523;28;20212;-82
2022/07/05 05:22:42;;;;;;;11.73;2.92;;;17.70;99.90;;;;;;5008539;28;20200;-82
2022/07/05 05:25:09;;;;;;;11.23;3.33;;;17.80;99.90;;;;;;5008557;28;20745;-83
2022/07/05 05:27:39;;;;;;;5.50;3.10;;;18.10;99.90;;;;;;5008344;28;20648;-82
2022/07/05 05:30:05;;;;;;;6.95;3.03;;;18.30;99.90;;;;;;5008302;28;20207;-84
2022/07/05 05:32:31;;;;;;;6.05;2.42;;;18.30;99.90;;;;;;4993728;28;20173;-83
2022/07/05 05:34:56;;;;;;;9.38;2.47;;;18.40;99.90;;;;;;4992518;28;20168;-85
2022/07/05 05:37:22;;;;;;;5.57;2.50;;;18.30;99.90;;;;;;4993482;28;20169;-89
2022/07/05 05:39:48;;;;;;;7.03;2.50;;;18.30;99.90;;;;;;5008414;28;20220;-83
2022/07/05 05:42:13;;;;;;;6.75;2.42;;;18.40;99.90;;;;;;5008502;28;20193;-83
2022/07/05 05:44:39;;;;;;;4.68;2.55;;;18.30;99.90;;;;;;4993384;28;20675;-82
2022/07/05 05:47:04;;;;;;;6.15;2.78;;;18.10;99.90;;;;;;4993133;28;20244;-81
2022/07/05 05:49:30;;;;;;;4.80;3.03;;;18.20;99.90;;;;;;4992987;28;20205;-82
2022/07/05 05:51:56;;;;;;;2.70;2.10;;;18.30;99.90;;;;;;5008215;28;20247;-82
2022/07/05 05:54:21;;;;;;;12.05;2.28;;;18.40;99.90;;;;;;5008044;28;20219;-89
2022/07/05 05:56:47;;;;;;;2.00;1.80;;;18.50;99.90;;;;;;5007830;28;20177;-83
2022/07/05 05:59:12;;;;;;;6.10;2.42;;;18.40;99.90;;;;;;4992983;28;20328;-82
2022/07/05 06:01:38;;;;;;;4.25;2.33;;;18.20;99.90;;;;;;4995462;28;20169;-88
2022/07/05 06:04:03;;;;;;;4.63;2.30;;;18.30;99.90;;;;;;4996906;28;20233;-82
2022/07/05 06:06:29;;;;;;;7.18;3.15;;;18.40;99.90;;;;;;5012054;28;20539;-82
2022/07/05 06:08:55;;;;;;;9.35;2.40;;;18.30;99.90;;;;;;5011202;28;20943;-84
2022/07/05 06:11:21;;;;;;;8.40;2.50;;;18.30;99.90;;;;;;5011590;28;20173;-82
2022/07/05 06:13:46;;;;;;;6.50;1.90;;;18.30;99.90;;;;;;5011951;28;20192;-82
2022/07/05 06:16:12;;;;;;;9.13;2.60;;;18.50;99.90;;;;;;4996463;28;20614;-82
2022/07/05 06:18:38;;;;;;;6.75;2.40;;;18.70;99.90;;;;;;4996662;28;20197;-82
2022/07/05 06:21:03;;;;;;;3.58;2.10;;;18.70;99.90;;;;;;4995217;28;20656;-84
2022/07/05 06:23:29;;;;;;;3.00;2.05;;;18.50;99.90;;;;;;4996442;28;20211;-82
2022/07/05 06:25:55;;;;;;;4.20;2.15;;;18.30;99.90;;;;;;4998197;28;20257;-80
2022/07/05 06:28:20;;;;;;;11.35;2.17;;;18.50;99.90;;;;;;4998068;28;20260;-83
2022/07/05 06:30:46;;;;;;;2.13;1.63;;;18.50;99.90;;;;;;5014512;28;20173;-82
2022/07/05 06:33:12;;;;;;;4.78;2.08;;;18.50;99.90;;;;;;4997583;28;20161;-80
2022/07/05 06:35:38;;;;;;;7.97;2.45;;;18.50;99.90;;;;;;5013289;28;20632;-81
2022/07/05 06:38:06;;;;;;;12.00;2.42;;;18.50;99.90;;;;;;5012191;28;20188;-81
2022/07/05 06:40:39;;;;;;;11.63;3.08;;;18.40;99.90;;;;;;4996663;28;20176;-81
2022/07/05 06:43:07;;;;;;;5.15;2.30;;;18.50;99.90;;;;;;5020743;28;20225;-81
2022/07/05 06:45:33;;;;;;;5.00;2.80;;;18.40;99.90;;;;;;5009094;28;20568;-80
2022/07/05 06:48:04;;;;;;;8.65;2.67;;;18.40;99.90;;;;;;5007712;28;20184;-80
2022/07/05 06:50:32;;;;;;;5.60;2.45;;;18.40;99.90;;;;;;5004663;28;20240;-80
2022/07/05 06:52:58;;;;;;;9.23;3.40;;;18.50;99.90;;;;;;5009535;28;20173;-81
2022/07/05 06:55:27;;;;;;;21.38;2.90;;;18.60;99.90;;;;;;5026101;28;20173;-84
2022/07/05 06:58:04;;;;;;;11.20;2.30;;;18.80;99.90;;;;;;5032932;28;20189;-83
2022/07/05 07:00:31;;;;;;;11.40;2.45;;;19.10;99.90;;;;;;5016832;28;20177;-87
2022/07/05 07:02:57;;;;;;;2.75;1.88;;;19.90;99.90;;;;;;4996797;28;20618;-85
2022/07/05 07:05:23;;;;;;;6.85;2.28;;;20.80;99.90;;;;;;5005502;28;20172;-80
2022/07/05 07:10:34;;;;;;;5.47;1.90;;;22.80;99.90;;;;;;5014621;28;20199;-79
2022/07/05 07:13:00;;;;;;;4.60;1.67;;;23.60;99.90;;;;;;5020500;28;20518;-87
2022/07/05 07:15:27;;;;;;;21.95;2.10;;;23.30;99.90;;;;;;5032842;28;20183;-78
2022/07/05 07:17:53;;;;;;;6.88;1.98;;;23.70;99.90;;;;;;5021159;28;20223;-78
2022/07/05 07:20:18;;;;;;;18.23;2.22;;;24.10;99.90;;;;;;5013788;28;20184;-79
2022/07/05 07:22:44;;;;;;;5.82;2.03;;;24.10;99.90;;;;;;5013223;28;20216;-79
2022/07/05 07:25:11;;;;;;;13.95;2.20;;;24.10;99.90;;;;;;5012214;28;20613;-79
2022/07/05 07:27:49;;;;;;;10.82;1.92;;;24.40;99.90;;;;;;5013930;28;20180;-78
2022/07/05 07:30:17;;;;;;;5.30;1.70;;;24.50;99.90;;;;;;5011129;28;20740;-79
2022/07/05 07:32:44;;;;;;;6.43;2.22;;;24.90;99.90;;;;;;5009696;28;20180;-80
2022/07/05 07:35:10;;;;;;;8.43;1.85;;;25.30;99.90;;;;;;5027656;28;20176;-80
2022/07/05 07:37:36;;;;;;;4.82;2.05;;;25.90;99.90;;;;;;5012519;28;20184;-81
2022/07/05 07:40:07;;;;;;;7.88;2.00;;;25.80;99.90;;;;;;5015027;28;20279;-84
2022/07/05 07:42:33;;;;;;;5.20;2.00;;;26.50;99.90;;;;;;5011738;28;20199;-81
2022/07/05 07:44:58;;;;;;;8.95;2.10;;;27.20;99.90;;;;;;5012972;28;20172;-81
2022/07/05 07:47:24;;;;;;;6.15;2.25;;;28.10;99.90;;;;;;5013230;28;20180;-82
2022/07/05 07:49:50;;;;;;;6.18;2.15;;;27.60;99.90;;;;;;5013219;28;20267;-81
2022/07/05 07:52:16;;;;;;;5.85;2.90;;;26.90;99.90;;;;;;5016153;28;20180;-82
2022/07/05 07:54:43;;;;;;;3.53;2.05;;;26.10;99.90;;;;;;5012562;28;20626;-81
2022/07/05 07:57:09;;;;;;;11.85;2.80;;;25.90;99.90;;;;;;5013261;28;20181;-80
2022/07/05 07:59:35;;;;;;;5.47;1.92;;;25.40;99.90;;;;;;5013269;28;20251;-82
2022/07/05 08:02:01;;;;;;;9.73;3.38;;;24.90;99.90;;;;;;5014854;28;20614;-80
2022/07/05 08:04:27;;;;;;;21.92;2.85;;;24.60;99.90;;;;;;5013031;28;20176;-81
2022/07/05 08:06:52;;;;;;;11.82;2.53;;;24.40;99.90;;;;;;5013771;28;20176;-81
2022/07/05 08:09:19;;;;;;;5.93;3.10;;;24.50;99.90;;;;;;5013789;28;20188;-81
2022/07/05 08:11:46;;;;;;;5.90;2.00;;;24.50;99.90;;;;;;5029435;28;20311;-82
2022/07/05 08:14:13;;;;;;;5.88;2.47;;;24.40;99.90;;;;;;5013554;28;20180;-82
2022/07/05 08:21:49;;;;;;;8.27;3.22;;;24.20;99.90;;;;;;5013845;28;20187;-81
2022/07/05 08:24:15;;;;;;;8.73;3.65;;;23.20;99.90;;;;;;5012263;28;20205;-82
2022/07/05 08:26:41;;;;;;;9.13;2.65;;;23.30;99.90;;;;;;5012538;28;20227;-82
2022/07/05 08:29:11;;;;;;;5.63;2.50;;;23.00;99.90;;;;;;5012069;28;20345;-81
2022/07/05 08:31:43;;;;;;;13.63;2.90;;;23.10;99.90;;;;;;5013045;28;20165;-81
2022/07/05 08:34:08;;;;;;;8.20;2.45;;;23.00;99.90;;;;;;5013525;28;20171;-82
2022/07/05 08:36:34;;;;;;;11.30;2.65;;;23.10;99.90;;;;;;5012244;28;20172;-79
2022/07/05 08:39:00;;;;;;;13.35;2.60;;;23.20;99.90;;;;;;5013881;28;20220;-81
2022/07/05 08:41:26;;;;;;;10.18;2.92;;;23.40;99.90;;;;;;5013498;28;20165;-82
2022/07/05 08:43:53;;;;;;;11.55;4.75;;;23.30;99.90;;;;;;5013146;28;20658;-79
2022/07/05 08:46:19;;;;;;;12.70;5.07;;;23.30;99.90;;;;;;5013347;28;20632;-79
2022/07/05 08:48:48;;;;;;;13.57;6.35;;;23.30;99.90;;;;;;5013103;28;20180;-80
2022/07/05 08:51:26;;;;;;;9.27;4.07;;;23.50;99.90;;;;;;5012774;28;20168;-79
2022/07/05 08:53:52;;;;;;;13.77;4.72;;;23.60;99.90;;;;;;5013479;28;20160;-79
2022/07/05 08:56:19;;;;;;;7.90;4.10;;;23.70;99.90;;;;;;5013067;28;20177;-82
2022/07/05 08:58:45;;;;;;;6.03;3.58;;;23.40;99.90;;;;;;5012952;28;20656;-79
2022/07/05 09:01:12;;;;;;;4.72;3.08;;;23.50;99.90;;;;;;5017216;28;20235;-79
2022/07/05 09:03:51;;;;;;;13.43;3.65;;;23.50;99.90;;;;;;5018635;28;20296;-80
2022/07/05 09:06:19;;;;;;;11.70;3.72;;;23.70;99.90;;;;;;5015449;28;20187;-79
2022/07/05 09:08:47;;;;;;;8.23;3.63;;;23.50;99.90;;;;;;5018425;28;20180;-79
2022/07/05 09:11:15;;;;;;;14.13;3.78;;;23.60;99.90;;;;;;5013050;28;20176;-79
2022/07/05 09:13:43;;;;;;;7.35;3.80;;;23.50;99.90;;;;;;5012437;28;20537;-79
2022/07/05 09:16:09;;;;;;;10.82;3.20;;;23.70;99.90;;;;;;5012847;28;20255;-79
2022/07/05 09:18:41;;;;;;;4.35;3.20;;;23.70;99.90;;;;;;5013043;28;20604;-79
2022/07/05 09:21:17;;;;;;;12.93;3.55;;;23.80;99.90;;;;;;5028203;28;20176;-79
2022/07/05 09:23:44;;;;;;;5.80;2.35;;;23.80;99.90;;;;;;5012615;28;20215;-79
2022/07/05 09:26:10;;;;;;;9.68;2.33;;;24.00;99.90;;;;;;5012808;28;20203;-79
2022/07/05 09:28:36;;;;;;;5.35;3.28;;;24.50;99.90;;;;;;5027813;28;20224;-79
2022/07/05 09:31:01;;;;;;;8.85;3.30;;;24.30;99.90;;;;;;5012779;28;20524;-79
2022/07/05 09:33:27;;;;;;;5.32;3.25;;;24.20;99.90;;;;;;5028099;28;20183;-79
2022/07/05 09:36:01;;;;;;;7.32;3.72;;;24.20;99.90;;;;;;5014559;28;20255;-79
2022/07/05 09:38:27;;;;;;;6.93;3.47;;;24.50;99.90;;;;;;5031998;28;20283;-80
2022/07/05 09:40:54;;;;;;;8.48;3.08;;;24.70;99.90;;;;;;5031666;28;20511;-79
2022/07/05 09:43:27;;;;;;;10.35;3.25;;;25.00;99.90;;;;;;5016865;28;20200;-79
2022/07/05 09:46:00;;;;;;;10.18;3.10;;;25.30;99.90;;;;;;5017525;28;20168;-79
2022/07/05 09:48:28;;;;;;;6.18;3.13;;;25.50;99.90;;;;;;5038578;28;20176;-79
2022/07/05 09:51:05;;;;;;;6.60;3.25;;;25.60;99.90;;;;;;5019258;28;20187;-79
2022/07/05 09:54:03;;;;;;;4.38;2.72;;;25.80;99.90;;;;;;5016391;28;20168;-80
2022/07/05 09:56:29;;;;;;;3.35;2.45;;;25.70;99.90;;;;;;4994109;28;20196;-80
2022/07/05 09:58:55;;;;;;;3.65;2.33;;;25.70;99.90;;;;;;5016231;28;20192;-79
2022/07/05 10:01:24;;;;;;;13.50;2.25;;;25.70;99.90;;;;;;5016555;28;20168;-79
2022/07/05 10:03:58;;;;;;;4.97;2.08;;;25.70;99.90;;;;;;5031403;28;20681;-79
2022/07/05 10:06:26;;;;;;;4.78;2.53;;;25.90;99.90;;;;;;5016409;28;20187;-79
2022/07/05 10:08:55;;;;;;;8.73;2.10;;;25.80;99.90;;;;;;5016263;28;20250;-79
2022/07/05 10:11:22;;;;;;;15.60;2.97;;;25.50;99.90;;;;;;5017890;28;20169;-80
2022/07/05 10:13:50;;;;;;;10.75;2.63;;;25.40;99.90;;;;;;5018197;28;20185;-80
2022/07/05 10:16:19;;;;;;;11.48;2.45;;;25.30;99.90;;;;;;5016808;28;20215;-79
2022/07/05 10:18:51;;;;;;;3.35;2.00;;;25.40;99.90;;;;;;5017032;28;20200;-80
2022/07/05 10:21:18;;;;;;;1.30;1.15;;;25.50;99.90;;;;;;5032092;28;20203;-79
2022/07/05 10:23:46;;;;;;;5.55;1.58;;;25.60;99.90;;;;;;5015690;28;20208;-80
2022/07/05 10:26:13;;;;;;;3.45;1.75;;;25.80;99.90;;;;;;5016258;28;20168;-79
2022/07/05 10:28:43;;;;;;;4.93;1.55;;;26.10;99.90;;;;;;5019097;28;20192;-80
2022/07/05 10:31:09;;;;;;;3.55;1.65;;;25.40;99.90;;;;;;5032659;28;20203;-79
2022/07/05 10:33:35;;;;;;;3.95;2.10;;;25.80;99.90;;;;;;5018461;28;20161;-79
2022/07/05 10:36:02;;;;;;;10.77;1.55;;;26.10;99.90;;;;;;5021307;28;20169;-79
2022/07/05 10:38:29;;;;;;;7.40;1.70;;;26.10;99.90;;;;;;5020044;28;20208;-79
2022/07/05 10:41:01;;;;;;;4.45;1.48;;;26.00;99.90;;;;;;5033839;28;20176;-79
2022/07/05 10:43:28;;;;;;;13.65;2.13;;;25.90;99.90;;;;;;5018885;28;20768;-80
2022/07/05 10:45:53;;;;;;;10.38;2.55;;;25.70;99.90;;;;;;5038999;28;20177;-80
2022/07/05 10:48:26;;;;;;;2.08;1.50;;;25.70;99.90;;;;;;5036532;28;20169;-79
2022/07/05 10:50:59;;;;;;;5.60;1.30;;;25.60;99.90;;;;;;5036983;28;20168;-79
2022/07/05 10:53:49;;;;;;;3.60;2.00;;;25.70;99.90;;;;;;5037393;28;20180;-80
2022/07/05 10:56:15;;;;;;;2.40;1.42;;;25.70;99.90;;;;;;5030424;28;20176;-79
2022/07/05 10:58:42;;;;;;;15.00;2.13;;;25.20;99.90;;;;;;5022715;28;20218;-81
2022/07/05 11:01:23;;;;;;;3.67;1.30;;;24.80;99.90;;;;;;5017749;28;20161;-81
2022/07/05 11:04:02;;;;;;;15.75;1.95;;;24.70;99.90;;;;;;5039238;28;20303;-81
2022/07/05 11:06:30;;;;;;;3.00;1.42;;;24.30;99.90;;;;;;5018634;28;20160;-81
2022/07/05 11:08:59;;;;;;;2.83;1.10;;;24.30;99.90;;;;;;5027370;28;20283;-81
2022/07/05 11:11:29;;;;;;;4.82;1.27;;;24.50;99.90;;;;;;5036276;28;20168;-81
2022/07/05 11:13:55;;;;;;;2.30;1.10;;;24.90;99.90;;;;;;5030461;28;20287;-81
2022/07/05 11:16:35;;;;;;;4.05;1.33;;;25.00;99.90;;;;;;5030644;28;20175;-82
2022/07/05 11:19:07;;;;;;;8.82;2.00;;;25.20;99.90;;;;;;5022213;28;20196;-81
2022/07/05 11:21:34;;;;;;;11.85;1.27;;;25.30;99.90;;;;;;5030433;28;20195;-80
2022/07/05 11:24:36;;;;;;;7.68;2.67;;;25.40;99.90;;;;;;5015922;28;20254;-81
2022/07/05 11:27:11;;;;;;;4.93;1.73;;;25.40;99.90;;;;;;5021802;28;20266;-81
2022/07/05 11:29:44;;;;;;;4.90;1.75;;;25.50;99.90;;;;;;5013484;28;20648;-81
2022/07/05 11:32:10;;;;;;;2.38;1.40;;;25.60;99.90;;;;;;5029934;28;20180;-81
2022/07/05 11:34:37;;;;;;;3.95;2.13;;;24.90;99.90;;;;;;5029702;28;20188;-80
2022/07/05 11:37:28;;;;;;;9.55;1.65;;;24.60;99.90;;;;;;5014416;28;20169;-82
2022/07/05 11:40:11;;;;;;;3.05;2.25;;;24.20;99.90;;;;;;5009298;28;20205;-81
2022/07/05 11:42:48;;;;;;;7.40;1.75;;;24.30;99.90;;;;;;5029433;28;20362;-81
2022/07/05 11:45:14;;;;;;;1.75;1.23;;;24.40;99.90;;;;;;5031233;28;20180;-80
2022/07/05 11:47:40;;;;;;;11.75;1.65;;;24.00;99.90;;;;;;5013944;28;20168;-80
2022/07/05 11:50:07;;;;;;;6.80;2.97;;;24.00;99.90;;;;;;5029232;28;20197;-81
2022/07/05 11:52:35;;;;;;;8.68;2.22;;;24.10;99.90;;;;;;5014904;28;20179;-81
2022/07/05 11:55:03;;;;;;;15.48;3.05;;;24.30;99.90;;;;;;5013543;28;20199;-82
2022/07/05 11:57:29;;;;;;;3.53;1.80;;;24.50;99.90;;;;;;5013007;28;20167;-82
2022/07/05 11:59:54;;;;;;;3.72;1.70;;;24.70;99.90;;;;;;5014582;28;20552;-81
2022/07/05 12:02:20;;;;;;;8.95;1.90;;;25.20;99.90;;;;;;5013495;28;20663;-81
2022/07/05 12:04:51;;;;;;;3.35;1.60;;;25.00;99.90;;;;;;5012975;28;20216;-80
2022/07/05 12:07:33;;;;;;;4.63;1.42;;;24.90;99.90;;;;;;5014417;28;20636;-83
2022/07/05 12:12:44;;;;;;;11.00;1.90;;;24.50;99.90;;;;;;5022704;28;20235;-81
2022/07/05 12:15:15;;;;;;;5.15;1.92;;;24.50;99.90;;;;;;5032769;28;20180;-81
2022/07/05 12:17:42;;;;;;;2.75;1.60;;;24.50;99.90;;;;;;5016156;28;20172;-82
2022/07/05 12:20:14;;;;;;;2.95;2.58;;;24.30;99.90;;;;;;5013915;28;20180;-80
2022/07/05 12:22:44;;;;;;;3.05;1.90;;;24.30;99.90;;;;;;5012910;28;20208;-81
2022/07/05 12:25:16;;;;;;;4.85;2.50;;;24.60;99.90;;;;;;5013395;28;20161;-82
2022/07/05 12:27:43;;;;;;;13.32;1.83;;;24.70;99.90;;;;;;5012646;28;20207;-81
2022/07/05 12:30:10;;;;;;;4.63;1.98;;;24.90;99.90;;;;;;5011362;28;20237;-81
2022/07/05 12:33:09;;;;;;;9.75;1.95;;;24.70;99.90;;;;;;5028682;28;20172;-81
2022/07/05 12:35:46;;;;;;;4.18;2.30;;;24.30;99.90;;;;;;5013179;28;20173;-81
2022/07/05 12:38:18;;;;;;;9.27;1.77;;;24.10;99.90;;;;;;5013556;28;20564;-81
2022/07/05 12:40:46;;;;;;;9.60;1.83;;;23.90;99.90;;;;;;5013393;28;20191;-80
2022/07/05 12:43:17;;;;;;;16.13;2.42;;;24.00;99.90;;;;;;5015235;28;20742;-80
2022/07/05 12:45:58;;;;;;;2.45;1.60;;;23.90;99.90;;;;;;5013903;28;20310;-81
2022/07/05 12:48:32;;;;;;;5.93;1.73;;;23.50;99.90;;;;;;5014529;28;20568;-83
2022/07/05 12:50:57;;;;;;;2.75;1.77;;;23.80;99.90;;;;;;5028073;28;20180;-85
2022/07/05 12:58:58;;;;;;;18.95;2.42;;;23.90;99.90;;;;;;5014213;28;20215;-85
2022/07/05 13:01:31;;;;;;;3.15;1.55;;;24.10;99.90;;;;;;5029300;28;20528;-84
2022/07/05 13:04:00;;;;;;;11.13;1.50;;;24.10;99.90;;;;;;5028618;28;20612;-83